sensor_id;sensor_type;location;lat;lon;timestamp;temperature;humidity
6556;DHT22;3311;48.32423000;14.29074500;2022-10-16T05:52:16;16.20;87.10
6556;DHT22;3311;48.32423000;14.29074500;2022-10-16T05:54:44;16.20;86.90
6556;DHT22;3311;48.32423000;14.29074500;2022-10-16T05:57:11;16.20;86.70
6556;DHT22;3311;48.32423000;14.29074500;2022-10-16T05:59:38;16.30;86.70
6556;DHT22;3311;48.32423000;14.29074500;2022-10-16T06:02:05;16.30;86.60
6556;DHT22;3311;48.32423000;14.29074500;2022-10-16T06:04:33;16.30;86.50
6556;DHT22;3311;48.32423000;14.29074500;2022-10-16T06:07:00;16.30;86.60
6556;DHT22;3311;48.32423000;14.29074500;2022-10-16T06:09:28;16.30;86.60
6556;DHT22;3311;48.32423000;14.29074500;2022-10-16T06:11:55;16.30;86.50
6556;DHT22;3311;48.32423000;14.29074500;2022-10-16T06:14:23;16.20;86.80
6556;DHT22;3311;48.32423000;14.29074500;2022-10-16T06:16:50;16.20;86.80
6556;DHT22;3311;48.32423000;14.29074500;2022-10-16T06:19:17;16.30;86.90
6556;DHT22;3311;48.32423000;14.29074500;2022-10-16T06:21:44;16.30;86.60
6556;DHT22;3311;48.32423000;14.29074500;2022-10-16T06:24:12;16.40;86.50
6556;DHT22;3311;48.32423000;14.29074500;2022-10-16T06:26:41;16.30;86.40
6556;DHT22;3311;48.32423000;14.29074500;2022-10-16T06:29:08;16.40;86.30
6556;DHT22;3311;48.32423000;14.29074500;2022-10-16T06:31:36;16.50;86.80
6556;DHT22;3311;48.32423000;14.29074500;2022-10-16T06:34:03;16.50;87.10
6556;DHT22;3311;48.32423000;14.29074500;2022-10-16T06:36:35;16.50;87.70
6556;DHT22;3311;48.32423000;14.29074500;2022-10-16T06:39:02;16.50;87.80
6556;DHT22;3311;48.32423000;14.29074500;2022-10-16T06:41:30;16.60;87.90
6556;DHT22;3311;48.32423000;14.29074500;2022-10-16T06:43:59;16.70;87.20
6556;DHT22;3311;48.32423000;14.29074500;2022-10-16T06:46:27;16.80;87.30
6556;DHT22;3311;48.32423000;14.29074500;2022-10-16T06:48:54;16.90;87.00
6556;DHT22;3311;48.32423000;14.29074500;2022-10-16T06:51:23;16.90;87.40
6556;DHT22;3311;48.32423000;14.29074500;2022-10-16T06:53:52;16.90;87.50
6556;DHT22;3311;48.32423000;14.29074500;2022-10-16T06:56:21;17.00;87.10
6556;DHT22;3311;48.32423000;14.29074500;2022-10-16T06:58:49;17.00;87.40
6556;DHT22;3311;48.32423000;14.29074500;2022-10-16T07:01:22;16.90;87.40
6556;DHT22;3311;48.32423000;14.29074500;2022-10-16T07:03:51;17.00;87.40
6556;DHT22;3311;48.32423000;14.29074500;2022-10-16T07:06:20;16.90;87.40
6556;DHT22;3311;48.32423000;14.29074500;2022-10-16T07:08:49;16.90;87.40
6556;DHT22;3311;48.32423000;14.29074500;2022-10-16T07:11:18;16.90;87.50
6556;DHT22;3311;48.32423000;14.29074500;2022-10-16T07:13:48;17.00;88.10
6556;DHT22;3311;48.32423000;14.29074500;2022-10-16T07:16:18;17.20;86.90
6556;DHT22;3311;48.32423000;14.29074500;2022-10-16T07:18:47;17.20;86.90
6556;DHT22;3311;48.32423000;14.29074500;2022-10-16T07:21:17;17.20;86.90
6556;DHT22;3311;48.32423000;14.29074500;2022-10-16T07:23:45;17.10;87.00
6556;DHT22;3311;48.32423000;14.29074500;2022-10-16T07:26:12;17.20;87.10
6556;DHT22;3311;48.32423000;14.29074500;2022-10-16T07:28:42;17.30;86.80
6556;DHT22;3311;48.32423000;14.29074500;2022-10-16T07:31:12;17.40;86.30
6556;DHT22;3311;48.32423000;14.29074500;2022-10-16T07:33:42;17.60;85.80
6556;DHT22;3311;48.32423000;14.29074500;2022-10-16T07:36:11;17.80;84.80
6556;DHT22;3311;48.32423000;14.29074500;2022-10-16T07:38:38;18.00;84.10
6556;DHT22;3311;48.32423000;14.29074500;2022-10-16T07:41:07;18.30;83.90
6556;DHT22;3311;48.32423000;14.29074500;2022-10-16T07:43:34;18.40;83.60
6556;DHT22;3311;48.32423000;14.29074500;2022-10-16T07:46:01;18.50;83.50
6556;DHT22;3311;48.32423000;14.29074500;2022-10-16T07:48:31;18.60;83.30
6556;DHT22;3311;48.32423000;14.29074500;2022-10-16T07:51:02;18.60;83.10
6556;DHT22;3311;48.32423000;14.29074500;2022-10-16T07:53:30;18.60;83.40
6556;DHT22;3311;48.32423000;14.29074500;2022-10-16T07:55:58;18.50;83.60
6556;DHT22;3311;48.32423000;14.29074500;2022-10-16T07:58:26;18.30;83.90
6556;DHT22;3311;48.32423000;14.29074500;2022-10-16T08:00:53;18.30;84.20
6556;DHT22;3311;48.32423000;14.29074500;2022-10-16T08:03:21;18.20;84.30
6556;DHT22;3311;48.32423000;14.29074500;2022-10-16T08:05:48;18.30;84.20
6556;DHT22;3311;48.32423000;14.29074500;2022-10-16T08:08:18;18.40;84.10
6556;DHT22;3311;48.32423000;14.29074500;2022-10-16T08:10:45;18.40;84.00
6556;DHT22;3311;48.32423000;14.29074500;2022-10-16T08:13:13;18.50;83.90
6556;DHT22;3311;48.32423000;14.29074500;2022-10-16T08:15:41;19.30;84.70
6556;DHT22;3311;48.32423000;14.29074500;2022-10-16T08:18:10;18.60;84.00
6556;DHT22;3311;48.32423000;14.29074500;2022-10-16T08:20:38;18.60;83.70
6556;DHT22;3311;48.32423000;14.29074500;2022-10-16T08:23:05;18.70;83.70
6556;DHT22;3311;48.32423000;14.29074500;2022-10-16T08:25:36;18.70;84.30
6556;DHT22;3311;48.32423000;14.29074500;2022-10-16T08:28:04;18.70;84.30
6556;DHT22;3311;48.32423000;14.29074500;2022-10-16T08:30:32;18.80;84.50
6556;DHT22;3311;48.32423000;14.29074500;2022-10-16T08:32:59;18.80;84.10
6556;DHT22;3311;48.32423000;14.29074500;2022-10-16T08:35:27;18.90;84.10
6556;DHT22;3311;48.32423000;14.29074500;2022-10-16T08:37:54;18.90;84.10
6556;DHT22;3311;48.32423000;14.29074500;2022-10-16T08:40:24;18.90;84.10
6556;DHT22;3311;48.32423000;14.29074500;2022-10-16T08:43:08;18.80;84.30
6556;DHT22;3311;48.32423000;14.29074500;2022-10-16T08:45:46;17.60;83.20
6556;DHT22;3311;48.32423000;14.29074500;2022-10-16T08:48:20;18.70;84.70
6556;DHT22;3311;48.32423000;14.29074500;2022-10-16T08:50:51;18.70;84.80
6556;DHT22;3311;48.32423000;14.29074500;2022-10-16T08:53:23;18.60;85.10
6556;DHT22;3311;48.32423000;14.29074500;2022-10-16T08:55:52;18.60;85.30
6556;DHT22;3311;48.32423000;14.29074500;2022-10-16T08:58:23;18.60;85.30
6556;DHT22;3311;48.32423000;14.29074500;2022-10-16T09:00:55;18.70;85.40
6556;DHT22;3311;48.32423000;14.29074500;2022-10-16T09:03:37;18.70;85.00
6556;DHT22;3311;48.32423000;14.29074500;2022-10-16T09:06:16;18.80;84.80
6556;DHT22;3311;48.32423000;14.29074500;2022-10-16T09:08:56;18.80;85.20
6556;DHT22;3311;48.32423000;14.29074500;2022-10-16T09:11:31;18.80;85.20
6556;DHT22;3311;48.32423000;14.29074500;2022-10-16T09:14:11;18.80;85.40
6556;DHT22;3311;48.32423000;14.29074500;2022-10-16T09:16:48;18.80;85.20
6556;DHT22;3311;48.32423000;14.29074500;2022-10-16T09:19:23;18.80;85.60
6556;DHT22;3311;48.32423000;14.29074500;2022-10-16T09:21:51;18.80;85.70
6556;DHT22;3311;48.32423000;14.29074500;2022-10-16T09:24:21;18.80;85.50
6556;DHT22;3311;48.32423000;14.29074500;2022-10-16T09:26:49;18.80;85.70
6556;DHT22;3311;48.32423000;14.29074500;2022-10-16T09:29:20;18.80;85.60
6556;DHT22;3311;48.32423000;14.29074500;2022-10-16T09:31:49;18.80;85.60
6556;DHT22;3311;48.32423000;14.29074500;2022-10-16T09:34:23;18.80;85.80
6556;DHT22;3311;48.32423000;14.29074500;2022-10-16T09:36:52;18.70;85.80
6556;DHT22;3311;48.32423000;14.29074500;2022-10-16T09:39:19;18.80;86.20
6556;DHT22;3311;48.32423000;14.29074500;2022-10-16T09:41:46;18.80;85.90
6556;DHT22;3311;48.32423000;14.29074500;2022-10-16T09:44:21;18.80;86.20
6556;DHT22;3311;48.32423000;14.29074500;2022-10-16T09:47:01;18.80;86.00
6556;DHT22;3311;48.32423000;14.29074500;2022-10-16T09:49:29;18.80;86.20
6556;DHT22;3311;48.32423000;14.29074500;2022-10-16T09:52:04;18.80;85.90
6556;DHT22;3311;48.32423000;14.29074500;2022-10-16T09:54:32;18.80;85.90
6556;DHT22;3311;48.32423000;14.29074500;2022-10-16T09:57:06;18.80;85.80
6556;DHT22;3311;48.32423000;14.29074500;2022-10-16T09:59:46;18.80;86.30
6556;DHT22;3311;48.32423000;14.29074500;2022-10-16T10:02:15;18.80;86.10
6556;DHT22;3311;48.32423000;14.29074500;2022-10-16T10:04:48;18.80;86.40
6556;DHT22;3311;48.32423000;14.29074500;2022-10-16T10:07:24;18.90;85.90
6556;DHT22;3311;48.32423000;14.29074500;2022-10-16T10:09:54;18.90;85.50
6556;DHT22;3311;48.32423000;14.29074500;2022-10-16T10:12:23;18.90;85.70
6556;DHT22;3311;48.32423000;14.29074500;2022-10-16T10:14:54;18.90;85.60
6556;DHT22;3311;48.32423000;14.29074500;2022-10-16T10:17:23;19.00;85.30
6556;DHT22;3311;48.32423000;14.29074500;2022-10-16T10:19:53;19.00;85.10
6556;DHT22;3311;48.32423000;14.29074500;2022-10-16T10:22:30;19.00;85.00
6556;DHT22;3311;48.32423000;14.29074500;2022-10-16T10:25:31;19.00;85.00
6556;DHT22;3311;48.32423000;14.29074500;2022-10-16T10:31:11;19.00;84.80
6556;DHT22;3311;48.32423000;14.29074500;2022-10-16T10:33:46;19.00;84.70
6556;DHT22;3311;48.32423000;14.29074500;2022-10-16T10:36:27;19.00;84.70
6556;DHT22;3311;48.32423000;14.29074500;2022-10-16T10:38:58;19.00;84.90
6556;DHT22;3311;48.32423000;14.29074500;2022-10-16T10:42:06;18.90;84.70
6556;DHT22;3311;48.32423000;14.29074500;2022-10-16T10:44:54;18.90;84.60
6556;DHT22;3311;48.32423000;14.29074500;2022-10-16T10:47:34;18.90;84.80
6556;DHT22;3311;48.32423000;14.29074500;2022-10-16T10:50:10;18.90;85.10
6556;DHT22;3311;48.32423000;14.29074500;2022-10-16T10:52:48;18.90;85.20
6556;DHT22;3311;48.32423000;14.29074500;2022-10-16T10:55:24;18.90;85.10
6556;DHT22;3311;48.32423000;14.29074500;2022-10-16T10:58:03;18.80;85.00
6556;DHT22;3311;48.32423000;14.29074500;2022-10-16T11:00:41;18.80;85.00
6556;DHT22;3311;48.32423000;14.29074500;2022-10-16T11:03:17;18.80;85.80
6556;DHT22;3311;48.32423000;14.29074500;2022-10-16T11:05:53;18.80;85.30
6556;DHT22;3311;48.32423000;14.29074500;2022-10-16T11:08:27;18.80;85.30
6556;DHT22;3311;48.32423000;14.29074500;2022-10-16T11:11:00;18.80;85.30
6556;DHT22;3311;48.32423000;14.29074500;2022-10-16T11:13:32;18.80;85.50
6556;DHT22;3311;48.32423000;14.29074500;2022-10-16T11:16:08;18.80;85.40
6556;DHT22;3311;48.32423000;14.29074500;2022-10-16T11:18:45;18.70;85.30
6556;DHT22;3311;48.32423000;14.29074500;2022-10-16T11:21:17;18.70;85.70
6556;DHT22;3311;48.32423000;14.29074500;2022-10-16T11:23:51;18.70;85.30
6556;DHT22;3311;48.32423000;14.29074500;2022-10-16T11:26:21;18.80;85.50
6556;DHT22;3311;48.32423000;14.29074500;2022-10-16T11:28:51;18.80;85.40
6556;DHT22;3311;48.32423000;14.29074500;2022-10-16T11:31:28;18.80;85.30
6556;DHT22;3311;48.32423000;14.29074500;2022-10-16T11:34:04;18.80;85.30
6556;DHT22;3311;48.32423000;14.29074500;2022-10-16T11:36:37;18.80;85.30
6556;DHT22;3311;48.32423000;14.29074500;2022-10-16T11:39:16;18.80;85.30
6556;DHT22;3311;48.32423000;14.29074500;2022-10-16T11:41:49;18.70;85.30
6556;DHT22;3311;48.32423000;14.29074500;2022-10-16T11:44:26;18.80;85.40
6556;DHT22;3311;48.32423000;14.29074500;2022-10-16T11:47:05;18.70;85.30
6556;DHT22;3311;48.32423000;14.29074500;2022-10-16T11:49:38;18.70;85.20
6556;DHT22;3311;48.32423000;14.29074500;2022-10-16T11:52:12;18.70;85.20
6556;DHT22;3311;48.32423000;14.29074500;2022-10-16T11:54:45;18.70;85.20
6556;DHT22;3311;48.32423000;14.29074500;2022-10-16T11:57:18;18.70;85.20
6556;DHT22;3311;48.32423000;14.29074500;2022-10-16T11:59:48;18.70;85.80
6556;DHT22;3311;48.32423000;14.29074500;2022-10-16T12:02:37;18.70;85.20
6556;DHT22;3311;48.32423000;14.29074500;2022-10-16T12:05:17;18.70;85.10
6556;DHT22;3311;48.32423000;14.29074500;2022-10-16T12:07:52;18.70;85.10
6556;DHT22;3311;48.32423000;14.29074500;2022-10-16T12:10:26;18.70;85.20
6556;DHT22;3311;48.32423000;14.29074500;2022-10-16T12:12:54;18.70;85.10
6556;DHT22;3311;48.32423000;14.29074500;2022-10-16T12:15:24;18.70;85.10
6556;DHT22;3311;48.32423000;14.29074500;2022-10-16T12:17:53;18.70;85.10
6556;DHT22;3311;48.32423000;14.29074500;2022-10-16T12:20:27;18.70;85.10
6556;DHT22;3311;48.32423000;14.29074500;2022-10-16T12:22:59;18.70;85.20
6556;DHT22;3311;48.32423000;14.29074500;2022-10-16T12:25:29;18.70;85.10
6556;DHT22;3311;48.32423000;14.29074500;2022-10-16T12:28:00;18.70;85.20
6556;DHT22;3311;48.32423000;14.29074500;2022-10-16T12:30:30;18.70;85.10
6556;DHT22;3311;48.32423000;14.29074500;2022-10-16T12:32:59;18.70;85.20
6556;DHT22;3311;48.32423000;14.29074500;2022-10-16T12:35:30;18.70;85.10
6556;DHT22;3311;48.32423000;14.29074500;2022-10-16T12:38:07;18.70;85.10
6556;DHT22;3311;48.32423000;14.29074500;2022-10-16T12:40:37;18.70;85.10
6556;DHT22;3311;48.32423000;14.29074500;2022-10-16T12:46:04;18.80;85.20
6556;DHT22;3311;48.32423000;14.29074500;2022-10-16T12:48:32;18.70;85.00
6556;DHT22;3311;48.32423000;14.29074500;2022-10-16T12:51:12;18.70;85.00
6556;DHT22;3311;48.32423000;14.29074500;2022-10-16T12:53:40;18.70;85.00
6556;DHT22;3311;48.32423000;14.29074500;2022-10-16T12:56:14;18.80;85.10
6556;DHT22;3311;48.32423000;14.29074500;2022-10-16T12:59:01;18.70;85.00
6556;DHT22;3311;48.32423000;14.29074500;2022-10-16T13:01:58;18.70;84.90
6556;DHT22;3311;48.32423000;14.29074500;2022-10-16T13:04:43;18.70;84.90
6556;DHT22;3311;48.32423000;14.29074500;2022-10-16T13:07:29;18.80;85.00
6556;DHT22;3311;48.32423000;14.29074500;2022-10-16T13:10:08;18.70;84.90
6556;DHT22;3311;48.32423000;14.29074500;2022-10-16T13:12:51;18.70;84.90
6556;DHT22;3311;48.32423000;14.29074500;2022-10-16T13:15:38;18.70;84.80
6556;DHT22;3311;48.32423000;14.29074500;2022-10-16T13:18:13;18.70;84.80
6556;DHT22;3311;48.32423000;14.29074500;2022-10-16T13:20:59;18.80;84.90
6556;DHT22;3311;48.32423000;14.29074500;2022-10-16T13:23:36;18.80;85.00
6556;DHT22;3311;48.32423000;14.29074500;2022-10-16T13:26:15;18.70;84.80
6556;DHT22;3311;48.32423000;14.29074500;2022-10-16T13:28:44;18.70;85.00
6556;DHT22;3311;48.32423000;14.29074500;2022-10-16T13:31:16;18.70;84.90
6556;DHT22;3311;48.32423000;14.29074500;2022-10-16T13:33:48;18.80;85.00
6556;DHT22;3311;48.32423000;14.29074500;2022-10-16T13:36:20;18.70;84.90
6556;DHT22;3311;48.32423000;14.29074500;2022-10-16T13:39:00;18.80;85.10
6556;DHT22;3311;48.32423000;14.29074500;2022-10-16T13:41:28;18.80;85.10
6556;DHT22;3311;48.32423000;14.29074500;2022-10-16T13:43:56;18.70;85.00
6556;DHT22;3311;48.32423000;14.29074500;2022-10-16T13:46:25;18.70;85.00
6556;DHT22;3311;48.32423000;14.29074500;2022-10-16T13:49:00;18.80;85.10
6556;DHT22;3311;48.32423000;14.29074500;2022-10-16T13:51:29;18.80;85.10
6556;DHT22;3311;48.32423000;14.29074500;2022-10-16T13:53:58;18.70;85.00
6556;DHT22;3311;48.32423000;14.29074500;2022-10-16T13:56:27;18.80;85.20
6556;DHT22;3311;48.32423000;14.29074500;2022-10-16T13:58:59;18.80;85.20
6556;DHT22;3311;48.32423000;14.29074500;2022-10-16T14:01:29;18.80;85.80
6556;DHT22;3311;48.32423000;14.29074500;2022-10-16T14:04:02;18.80;85.20
6556;DHT22;3311;48.32423000;14.29074500;2022-10-16T14:06:32;18.80;85.30
6556;DHT22;3311;48.32423000;14.29074500;2022-10-16T14:09:05;18.70;85.20
6556;DHT22;3311;48.32423000;14.29074500;2022-10-16T14:11:34;18.70;85.20
6556;DHT22;3311;48.32423000;14.29074500;2022-10-16T14:14:03;18.80;85.90
6556;DHT22;3311;48.32423000;14.29074500;2022-10-16T14:16:32;18.70;85.30
6556;DHT22;3311;48.32423000;14.29074500;2022-10-16T14:19:02;18.80;85.40
6556;DHT22;3311;48.32423000;14.29074500;2022-10-16T14:21:33;18.70;85.30
6556;DHT22;3311;48.32423000;14.29074500;2022-10-16T14:24:12;18.80;85.40
6556;DHT22;3311;48.32423000;14.29074500;2022-10-16T14:26:42;18.70;85.30
6556;DHT22;3311;48.32423000;14.29074500;2022-10-16T14:29:13;18.80;85.50
6556;DHT22;3311;48.32423000;14.29074500;2022-10-16T14:31:41;18.80;85.40
6556;DHT22;3311;48.32423000;14.29074500;2022-10-16T14:34:30;18.80;85.40
6556;DHT22;3311;48.32423000;14.29074500;2022-10-16T14:37:08;18.80;85.40
6556;DHT22;3311;48.32423000;14.29074500;2022-10-16T14:39:37;18.70;85.30
6556;DHT22;3311;48.32423000;14.29074500;2022-10-16T14:42:14;18.80;85.40
6556;DHT22;3311;48.32423000;14.29074500;2022-10-16T14:44:42;18.80;85.40
6556;DHT22;3311;48.32423000;14.29074500;2022-10-16T14:47:15;18.70;85.30
6556;DHT22;3311;48.32423000;14.29074500;2022-10-16T14:49:48;18.70;85.30
6556;DHT22;3311;48.32423000;14.29074500;2022-10-16T14:52:15;18.70;85.30
6556;DHT22;3311;48.32423000;14.29074500;2022-10-16T14:54:46;18.80;85.40
6556;DHT22;3311;48.32423000;14.29074500;2022-10-16T14:57:17;18.70;85.30
6556;DHT22;3311;48.32423000;14.29074500;2022-10-16T14:59:45;18.70;85.20
6556;DHT22;3311;48.32423000;14.29074500;2022-10-16T15:02:20;18.70;85.20
6556;DHT22;3311;48.32423000;14.29074500;2022-10-16T15:04:49;18.70;85.20
6556;DHT22;3311;48.32423000;14.29074500;2022-10-16T15:07:17;18.70;85.20
6556;DHT22;3311;48.32423000;14.29074500;2022-10-16T15:09:46;18.80;85.30
6556;DHT22;3311;48.32423000;14.29074500;2022-10-16T15:12:13;18.70;85.20
6556;DHT22;3311;48.32423000;14.29074500;2022-10-16T15:14:40;18.70;85.20
6556;DHT22;3311;48.32423000;14.29074500;2022-10-16T15:17:09;18.70;85.20
6556;DHT22;3311;48.32423000;14.29074500;2022-10-16T15:19:37;18.70;85.20
6556;DHT22;3311;48.32423000;14.29074500;2022-10-16T15:22:04;18.70;85.20
6556;DHT22;3311;48.32423000;14.29074500;2022-10-16T15:24:32;18.70;85.50
6556;DHT22;3311;48.32423000;14.29074500;2022-10-16T15:27:01;18.70;85.60
6556;DHT22;3311;48.32423000;14.29074500;2022-10-16T15:29:28;18.70;85.70
6556;DHT22;3311;48.32423000;14.29074500;2022-10-16T15:31:55;18.70;85.70
6556;DHT22;3311;48.32423000;14.29074500;2022-10-16T15:34:22;18.70;86.00
6556;DHT22;3311;48.32423000;14.29074500;2022-10-16T15:36:50;18.70;86.50
6556;DHT22;3311;48.32423000;14.29074500;2022-10-16T15:39:19;18.70;86.30
6556;DHT22;3311;48.32423000;14.29074500;2022-10-16T15:41:47;18.70;87.40
6556;DHT22;3311;48.32423000;14.29074500;2022-10-16T15:44:17;18.70;86.10
6556;DHT22;3311;48.32423000;14.29074500;2022-10-16T15:46:45;18.70;86.60
6556;DHT22;3311;48.32423000;14.29074500;2022-10-16T15:49:14;18.70;87.10
6556;DHT22;3311;48.32423000;14.29074500;2022-10-16T15:51:42;18.60;86.80
6556;DHT22;3311;48.32423000;14.29074500;2022-10-16T15:54:10;18.70;87.10
6556;DHT22;3311;48.32423000;14.29074500;2022-10-16T15:56:37;18.60;86.50
6556;DHT22;3311;48.32423000;14.29074500;2022-10-16T15:59:05;18.60;87.40
6556;DHT22;3311;48.32423000;14.29074500;2022-10-16T16:01:34;18.60;87.30
6556;DHT22;3311;48.32423000;14.29074500;2022-10-16T16:04:03;18.60;87.60
6556;DHT22;3311;48.32423000;14.29074500;2022-10-16T16:06:31;18.60;89.20
6556;DHT22;3311;48.32423000;14.29074500;2022-10-16T16:08:58;18.50;88.80
6556;DHT22;3311;48.32423000;14.29074500;2022-10-16T16:11:26;18.50;90.10
6556;DHT22;3311;48.32423000;14.29074500;2022-10-16T16:13:54;18.50;90.30
6556;DHT22;3311;48.32423000;14.29074500;2022-10-16T16:16:22;18.50;89.80
6556;DHT22;3311;48.32423000;14.29074500;2022-10-16T16:18:52;18.40;90.60
6556;DHT22;3311;48.32423000;14.29074500;2022-10-16T16:21:21;18.40;90.00
6556;DHT22;3311;48.32423000;14.29074500;2022-10-16T16:23:49;18.40;89.80
6556;DHT22;3311;48.32423000;14.29074500;2022-10-16T16:26:22;18.40;90.30
6556;DHT22;3311;48.32423000;14.29074500;2022-10-16T16:28:53;18.40;90.10
6556;DHT22;3311;48.32423000;14.29074500;2022-10-16T16:31:24;18.40;90.10
6556;DHT22;3311;48.32423000;14.29074500;2022-10-16T16:33:54;18.40;90.00
6556;DHT22;3311;48.32423000;14.29074500;2022-10-16T16:36:22;18.40;90.30
6556;DHT22;3311;48.32423000;14.29074500;2022-10-16T16:38:50;18.30;90.40
6556;DHT22;3311;48.32423000;14.29074500;2022-10-16T16:41:22;18.30;90.50
6556;DHT22;3311;48.32423000;14.29074500;2022-10-16T16:44:05;18.30;90.30
6556;DHT22;3311;48.32423000;14.29074500;2022-10-16T16:46:34;18.30;90.30
6556;DHT22;3311;48.32423000;14.29074500;2022-10-16T16:49:03;18.30;90.40
6556;DHT22;3311;48.32423000;14.29074500;2022-10-16T16:51:30;18.30;90.60
6556;DHT22;3311;48.32423000;14.29074500;2022-10-16T16:53:58;18.30;90.60
6556;DHT22;3311;48.32423000;14.29074500;2022-10-16T16:56:26;18.30;90.40
6556;DHT22;3311;48.32423000;14.29074500;2022-10-16T16:58:54;18.30;90.30
6556;DHT22;3311;48.32423000;14.29074500;2022-10-16T17:01:26;18.30;90.50
6556;DHT22;3311;48.32423000;14.29074500;2022-10-16T17:03:57;18.30;90.50
6556;DHT22;3311;48.32423000;14.29074500;2022-10-16T17:06:28;18.30;90.50
6556;DHT22;3311;48.32423000;14.29074500;2022-10-16T17:08:57;18.30;90.60
6556;DHT22;3311;48.32423000;14.29074500;2022-10-16T17:11:26;18.30;90.50
6556;DHT22;3311;48.32423000;14.29074500;2022-10-16T17:13:55;18.30;90.50
6556;DHT22;3311;48.32423000;14.29074500;2022-10-16T17:16:24;18.30;90.50
6556;DHT22;3311;48.32423000;14.29074500;2022-10-16T17:18:53;18.30;90.50
6556;DHT22;3311;48.32423000;14.29074500;2022-10-16T17:21:21;18.20;90.60
6556;DHT22;3311;48.32423000;14.29074500;2022-10-16T17:23:53;18.20;90.60
6556;DHT22;3311;48.32423000;14.29074500;2022-10-16T17:26:21;18.20;90.60
6556;DHT22;3311;48.32423000;14.29074500;2022-10-16T17:28:51;18.20;90.50
6556;DHT22;3311;48.32423000;14.29074500;2022-10-16T17:31:21;18.20;90.50
6556;DHT22;3311;48.32423000;14.29074500;2022-10-16T17:33:50;18.20;90.40
6556;DHT22;3311;48.32423000;14.29074500;2022-10-16T17:36:19;18.20;90.40
6556;DHT22;3311;48.32423000;14.29074500;2022-10-16T17:38:47;18.20;90.40
6556;DHT22;3311;48.32423000;14.29074500;2022-10-16T17:41:19;18.20;90.50
6556;DHT22;3311;48.32423000;14.29074500;2022-10-16T17:43:49;18.10;90.40
6556;DHT22;3311;48.32423000;14.29074500;2022-10-16T17:46:20;18.10;90.40
6556;DHT22;3311;48.32423000;14.29074500;2022-10-16T17:48:49;18.10;90.30
6556;DHT22;3311;48.32423000;14.29074500;2022-10-16T17:51:20;18.10;90.40
6556;DHT22;3311;48.32423000;14.29074500;2022-10-16T17:53:55;18.10;90.40
6556;DHT22;3311;48.32423000;14.29074500;2022-10-16T17:56:36;18.10;90.30
6556;DHT22;3311;48.32423000;14.29074500;2022-10-16T17:59:04;18.10;90.40
6556;DHT22;3311;48.32423000;14.29074500;2022-10-16T18:01:36;18.10;90.40
6556;DHT22;3311;48.32423000;14.29074500;2022-10-16T18:04:06;18.00;90.30
6556;DHT22;3311;48.32423000;14.29074500;2022-10-16T18:06:37;18.10;90.30
6556;DHT22;3311;48.32423000;14.29074500;2022-10-16T18:09:06;18.00;90.30
6556;DHT22;3311;48.32423000;14.29074500;2022-10-16T18:11:38;18.00;90.40
6556;DHT22;3311;48.32423000;14.29074500;2022-10-16T18:14:12;18.00;90.40
6556;DHT22;3311;48.32423000;14.29074500;2022-10-16T18:16:44;18.00;90.40
6556;DHT22;3311;48.32423000;14.29074500;2022-10-16T18:19:19;18.00;90.30
6556;DHT22;3311;48.32423000;14.29074500;2022-10-16T18:21:50;18.00;90.20
6556;DHT22;3311;48.32423000;14.29074500;2022-10-16T18:24:18;18.00;90.30
6556;DHT22;3311;48.32423000;14.29074500;2022-10-16T18:26:48;17.40;90.00
6556;DHT22;3311;48.32423000;14.29074500;2022-10-16T18:29:19;17.90;90.30
6556;DHT22;3311;48.32423000;14.29074500;2022-10-16T18:31:49;17.90;90.30
6556;DHT22;3311;48.32423000;14.29074500;2022-10-16T18:34:16;17.90;90.20
6556;DHT22;3311;48.32423000;14.29074500;2022-10-16T18:36:45;17.80;90.30
6556;DHT22;3311;48.32423000;14.29074500;2022-10-16T18:39:13;17.80;90.40
6556;DHT22;3311;48.32423000;14.29074500;2022-10-16T18:41:45;17.70;90.40
6556;DHT22;3311;48.32423000;14.29074500;2022-10-16T18:44:15;17.80;90.40
6556;DHT22;3311;48.32423000;14.29074500;2022-10-16T18:46:43;17.80;90.30
6556;DHT22;3311;48.32423000;14.29074500;2022-10-16T18:49:11;17.80;90.20
6556;DHT22;3311;48.32423000;14.29074500;2022-10-16T18:51:39;17.80;90.20
6556;DHT22;3311;48.32423000;14.29074500;2022-10-16T18:54:11;17.80;90.20
6556;DHT22;3311;48.32423000;14.29074500;2022-10-16T18:56:39;17.70;90.10
6556;DHT22;3311;48.32423000;14.29074500;2022-10-16T18:59:08;17.60;90.10
6556;DHT22;3311;48.32423000;14.29074500;2022-10-16T19:01:42;17.60;90.20
6556;DHT22;3311;48.32423000;14.29074500;2022-10-16T19:04:11;17.60;90.20
6556;DHT22;3311;48.32423000;14.29074500;2022-10-16T19:06:43;17.60;90.10
6556;DHT22;3311;48.32423000;14.29074500;2022-10-16T19:09:12;17.60;90.10
6556;DHT22;3311;48.32423000;14.29074500;2022-10-16T19:11:41;17.60;90.20
6556;DHT22;3311;48.32423000;14.29074500;2022-10-16T19:14:10;17.70;90.10
6556;DHT22;3311;48.32423000;14.29074500;2022-10-16T19:16:40;17.60;90.10
6556;DHT22;3311;48.32423000;14.29074500;2022-10-16T19:19:14;17.60;90.10
6556;DHT22;3311;48.32423000;14.29074500;2022-10-16T19:21:43;17.50;90.10
6556;DHT22;3311;48.32423000;14.29074500;2022-10-16T19:24:14;17.50;90.00
6556;DHT22;3311;48.32423000;14.29074500;2022-10-16T19:26:42;17.50;90.00
6556;DHT22;3311;48.32423000;14.29074500;2022-10-16T19:29:10;17.50;90.10
6556;DHT22;3311;48.32423000;14.29074500;2022-10-16T19:31:38;17.50;90.00
6556;DHT22;3311;48.32423000;14.29074500;2022-10-16T19:34:07;17.50;89.60
6556;DHT22;3311;48.32423000;14.29074500;2022-10-16T19:36:39;17.40;89.70
6556;DHT22;3311;48.32423000;14.29074500;2022-10-16T19:39:12;17.50;89.80
6556;DHT22;3311;48.32423000;14.29074500;2022-10-16T19:41:43;17.40;89.50
6556;DHT22;3311;48.32423000;14.29074500;2022-10-16T19:44:14;17.40;89.80
6556;DHT22;3311;48.32423000;14.29074500;2022-10-16T19:46:43;17.40;89.60
6556;DHT22;3311;48.32423000;14.29074500;2022-10-16T19:49:17;17.40;89.70
6556;DHT22;3311;48.32423000;14.29074500;2022-10-16T19:51:50;17.40;89.50
6556;DHT22;3311;48.32423000;14.29074500;2022-10-16T19:54:19;17.40;89.50